Time;durP1;ratioP1;P1;durP2;ratioP2;P2;SDS_P1;SDS_P2;PMS_P1;PMS_P2;Temp;Humidity;BMP_temperature;BMP_pressure;BME280_temperature;BME280_humidity;BME280_pressure;Samples;Min_cycle;Max_cycle;Signal;HPM_P1;HPM_P2
2022/07/13 00:01:21;;;;;;;4.18;3.88;;;20.30;99.90;;;;;;5088902;28;20055;-65
2022/07/13 00:03:47;;;;;;;5.93;3.95;;;20.40;99.90;;;;;;5089833;28;20079;-65
2022/07/13 00:06:12;;;;;;;4.07;3.70;;;20.30;99.90;;;;;;5089895;28;20119;-65
2022/07/13 00:08:38;;;;;;;3.65;3.35;;;20.20;99.90;;;;;;5089148;28;20376;-65
2022/07/13 00:11:03;;;;;;;4.60;4.30;;;20.20;99.90;;;;;;5089177;28;20082;-65
2022/07/13 00:13:29;;;;;;;4.90;4.40;;;20.20;99.90;;;;;;5088859;28;20453;-65
2022/07/13 00:15:55;;;;;;;4.28;3.63;;;20.20;99.90;;;;;;5089079;28;20048;-65
2022/07/13 00:18:20;;;;;;;4.65;4.25;;;20.20;99.90;;;;;;5089242;28;20051;-65
2022/07/13 00:20:47;;;;;;;4.15;3.85;;;20.20;99.90;;;;;;5088715;28;20241;-65
2022/07/13 00:23:12;;;;;;;5.53;5.13;;;20.30;99.90;;;;;;5089258;28;20398;-65
2022/07/13 00:25:38;;;;;;;4.97;4.57;;;20.20;99.90;;;;;;5089420;28;20036;-65
2022/07/13 00:28:04;;;;;;;5.13;4.63;;;20.20;99.90;;;;;;5088148;28;20113;-65
2022/07/13 00:30:29;;;;;;;4.93;4.53;;;20.20;99.90;;;;;;5089131;28;20040;-65
2022/07/13 00:32:55;;;;;;;4.53;4.13;;;20.20;99.90;;;;;;5088641;28;20028;-65
2022/07/13 00:35:21;;;;;;;4.95;4.55;;;20.20;99.90;;;;;;5088327;28;20048;-65
2022/07/13 00:37:46;;;;;;;4.22;3.83;;;20.20;99.90;;;;;;5089241;28;20067;-65
2022/07/13 00:40:12;;;;;;;6.10;4.10;;;20.30;99.90;;;;;;5088946;28;20048;-65
2022/07/13 00:42:39;;;;;;;4.72;4.32;;;20.10;99.90;;;;;;5086833;28;20047;-65
2022/07/13 00:45:05;;;;;;;4.13;3.83;;;20.10;99.90;;;;;;5088578;28;20135;-65
2022/07/13 00:47:32;;;;;;;4.35;3.95;;;20.10;99.90;;;;;;5088917;28;20048;-65
2022/07/13 00:50:06;;;;;;;4.13;3.83;;;20.10;99.90;;;;;;5087565;28;20445;-65
2022/07/13 00:52:35;;;;;;;4.22;3.90;;;20.10;99.90;;;;;;5088863;28;20044;-65
2022/07/13 00:55:02;;;;;;;4.93;4.10;;;20.10;99.90;;;;;;5088481;28;20093;-65
2022/07/13 00:57:28;;;;;;;5.28;3.83;;;20.00;99.90;;;;;;5087623;28;20498;-65
2022/07/13 00:59:55;;;;;;;7.93;4.38;;;20.00;99.90;;;;;;5086862;28;20060;-65
2022/07/13 01:02:20;;;;;;;3.92;3.63;;;20.00;99.90;;;;;;5088237;28;20062;-65
2022/07/13 01:04:46;;;;;;;3.90;3.60;;;20.00;99.90;;;;;;5088057;28;20130;-65
2022/07/13 01:07:12;;;;;;;4.57;4.00;;;20.00;99.90;;;;;;5088612;28;20079;-65
2022/07/13 01:09:38;;;;;;;3.67;3.38;;;20.00;99.90;;;;;;5088399;28;20044;-65
2022/07/13 01:12:05;;;;;;;6.47;3.83;;;19.90;99.90;;;;;;5087608;28;20646;-65
2022/07/13 01:14:31;;;;;;;4.38;4.07;;;20.00;99.90;;;;;;5088338;28;20062;-65
2022/07/13 01:16:58;;;;;;;4.63;3.30;;;20.10;99.90;;;;;;5086894;28;20498;-65
2022/07/13 01:19:24;;;;;;;4.18;3.80;;;19.90;99.90;;;;;;5088139;28;20044;-65
2022/07/13 01:21:56;;;;;;;5.32;3.40;;;19.90;99.90;;;;;;5087918;28;20376;-65
2022/07/13 01:24:22;;;;;;;;;;;19.90;99.90;;;;;;5086740;28;20361;-65
2022/07/13 01:26:49;;;;;;;4.97;3.90;;;19.90;99.90;;;;;;5088384;28;19966;-65
2022/07/13 01:29:15;;;;;;;6.45;3.80;;;19.90;99.90;;;;;;5088934;28;20122;-65
2022/07/13 01:31:41;;;;;;;4.28;3.88;;;19.90;99.90;;;;;;5086992;28;20043;-65
2022/07/13 01:34:08;;;;;;;4.63;4.13;;;19.90;99.90;;;;;;5087970;28;20072;-65
2022/07/13 01:36:35;;;;;;;4.57;4.03;;;19.90;99.90;;;;;;5088257;28;20055;-65
2022/07/13 01:39:01;;;;;;;7.28;4.75;;;19.90;99.90;;;;;;5085467;28;20040;-65
2022/07/13 01:41:29;;;;;;;5.15;4.75;;;19.90;99.90;;;;;;5087882;28;20044;-65
2022/07/13 01:43:57;;;;;;;5.13;4.63;;;19.90;99.90;;;;;;5087389;28;20449;-65
2022/07/13 01:46:26;;;;;;;6.43;5.93;;;19.90;99.90;;;;;;5087261;28;20047;-65
2022/07/13 01:48:54;;;;;;;6.07;5.57;;;19.90;99.90;;;;;;5087748;28;20090;-65
2022/07/13 01:51:20;;;;;;;6.53;5.93;;;19.90;99.90;;;;;;5087582;28;20520;-65
2022/07/13 01:53:46;;;;;;;6.60;6.00;;;19.90;99.90;;;;;;5087184;28;20044;-65
2022/07/13 01:56:12;;;;;;;6.50;5.18;;;19.90;99.90;;;;;;5087557;28;20044;-65
2022/07/13 01:58:38;;;;;;;6.13;5.55;;;20.00;99.90;;;;;;5087218;28;20055;-65
2022/07/13 02:01:04;;;;;;;5.97;5.45;;;19.90;99.90;;;;;;5084922;28;20048;-65
2022/07/13 02:03:30;;;;;;;7.28;6.57;;;19.90;99.90;;;;;;5087507;28;20044;-65
2022/07/13 02:05:57;;;;;;;8.55;6.13;;;19.90;99.90;;;;;;5086586;28;20421;-65
2022/07/13 02:08:23;;;;;;;6.68;6.07;;;20.00;99.90;;;;;;5087288;28;20421;-65
2022/07/13 02:10:49;;;;;;;6.78;6.20;;;20.00;99.90;;;;;;5087512;28;20453;-65
2022/07/13 02:13:15;;;;;;;7.68;6.97;;;20.00;99.90;;;;;;5087081;28;20764;-65
2022/07/13 02:15:42;;;;;;;7.63;6.80;;;20.00;99.90;;;;;;5085672;28;20052;-65
2022/07/13 02:18:08;;;;;;;7.53;6.80;;;20.10;99.90;;;;;;5086978;28;20546;-65
2022/07/13 02:20:35;;;;;;;8.13;7.43;;;20.00;99.90;;;;;;5086420;28;20207;-65
2022/07/13 02:23:00;;;;;;;7.93;7.13;;;20.20;99.90;;;;;;5086972;28;20525;-65
2022/07/13 02:25:26;;;;;;;7.80;7.10;;;20.00;99.90;;;;;;5085781;28;20044;-65
2022/07/13 02:27:52;;;;;;;8.23;7.43;;;20.00;99.90;;;;;;5085938;28;20154;-65
2022/07/13 02:30:17;;;;;;;9.27;7.20;;;20.10;99.90;;;;;;5086281;28;20048;-65
2022/07/13 02:32:45;;;;;;;7.22;6.57;;;20.10;99.90;;;;;;5087195;28;20039;-65
2022/07/13 02:35:12;;;;;;;8.25;7.40;;;20.10;99.90;;;;;;5086055;28;20048;-65
2022/07/13 02:37:40;;;;;;;9.25;7.65;;;20.30;99.90;;;;;;5086906;28;20040;-65
2022/07/13 02:40:07;;;;;;;7.68;7.00;;;20.10;99.90;;;;;;5084574;28;20433;-65
2022/07/13 02:42:32;;;;;;;7.47;6.85;;;20.10;99.90;;;;;;5086599;28;20425;-65
2022/07/13 02:44:58;;;;;;;10.80;7.38;;;20.10;99.90;;;;;;5086496;28;20047;-65
2022/07/13 02:47:24;;;;;;;7.57;6.97;;;20.10;99.90;;;;;;5086411;28;20103;-65
2022/07/13 02:49:50;;;;;;;8.38;7.53;;;20.10;99.90;;;;;;5085738;28;20051;-65
2022/07/13 02:52:16;;;;;;;8.55;7.70;;;20.10;99.90;;;;;;5086980;28;20047;-65
2022/07/13 02:54:42;;;;;;;9.07;8.27;;;20.10;99.90;;;;;;5086528;28;20047;-66
2022/07/13 02:57:08;;;;;;;8.02;7.32;;;20.10;99.90;;;;;;5085377;28;20090;-65
2022/07/13 02:59:37;;;;;;;8.70;7.95;;;20.10;99.90;;;;;;5085122;28;20502;-65
2022/07/13 03:02:04;;;;;;;8.70;7.55;;;20.00;99.90;;;;;;5085629;28;20058;-65
2022/07/13 03:04:31;;;;;;;8.30;7.55;;;20.00;99.90;;;;;;5085540;28;20556;-65
2022/07/13 03:06:57;;;;;;;8.75;7.97;;;20.00;99.90;;;;;;5085858;28;20123;-65
2022/07/13 03:09:23;;;;;;;7.72;7.13;;;20.00;99.90;;;;;;5083987;28;20299;-65
2022/07/13 03:11:50;;;;;;;8.98;8.13;;;19.90;99.90;;;;;;5086545;28;20048;-65
2022/07/13 03:14:16;;;;;;;9.15;8.35;;;19.90;99.90;;;;;;5086877;28;20072;-65
2022/07/13 03:16:42;;;;;;;8.93;8.13;;;19.90;99.90;;;;;;5084070;28;20048;-65
2022/07/13 03:19:08;;;;;;;8.55;7.75;;;20.00;99.90;;;;;;5085766;28;20036;-65
2022/07/13 03:21:35;;;;;;;8.82;7.95;;;19.90;99.90;;;;;;5085269;28;20040;-65
2022/07/13 03:24:00;;;;;;;8.60;7.80;;;19.90;99.90;;;;;;5085193;28;20105;-65
2022/07/13 03:26:26;;;;;;;9.35;8.50;;;20.00;99.90;;;;;;5086245;28;20040;-65
2022/07/13 03:28:52;;;;;;;9.77;8.80;;;19.90;99.90;;;;;;5085589;28;20048;-65
2022/07/13 03:31:18;;;;;;;9.60;8.75;;;19.90;99.90;;;;;;5086014;28;20498;-65
2022/07/13 03:33:44;;;;;;;10.18;7.97;;;19.90;99.90;;;;;;5085790;28;20040;-65
2022/07/13 03:36:09;;;;;;;8.27;7.57;;;19.90;99.90;;;;;;5085427;28;20570;-65
2022/07/13 03:38:35;;;;;;;12.15;8.60;;;20.00;99.90;;;;;;5085097;28;20044;-65
2022/07/13 03:41:01;;;;;;;9.32;8.40;;;19.80;99.90;;;;;;5084144;28;20130;-65
2022/07/13 03:43:27;;;;;;;9.63;8.57;;;19.90;99.90;;;;;;5086301;28;20139;-65
2022/07/13 03:45:52;;;;;;;8.95;7.97;;;19.90;99.90;;;;;;5084540;28;20102;-65
2022/07/13 03:48:18;;;;;;;9.45;8.45;;;19.90;99.90;;;;;;5086270;28;20063;-65
2022/07/13 03:50:46;;;;;;;8.82;7.93;;;19.90;99.90;;;;;;5086413;28;20039;-65
2022/07/13 03:53:12;;;;;;;9.90;7.95;;;19.90;99.90;;;;;;5085034;28;20078;-65
2022/07/13 03:55:42;;;;;;;9.50;7.47;;;19.90;99.90;;;;;;5086033;28;20071;-65
2022/07/13 03:58:08;;;;;;;8.63;7.80;;;19.90;99.90;;;;;;5085532;28;20044;-65
2022/07/13 04:00:34;;;;;;;8.20;6.75;;;19.90;99.90;;;;;;5084840;28;20080;-65
2022/07/13 04:03:00;;;;;;;8.50;7.60;;;19.90;99.90;;;;;;5083958;28;20086;-65
2022/07/13 04:05:26;;;;;;;8.57;7.85;;;19.90;99.90;;;;;;5085504;28;20071;-65
2022/07/13 04:07:51;;;;;;;8.38;7.57;;;19.80;99.90;;;;;;5084376;28;20036;-65
2022/07/13 04:10:18;;;;;;;8.32;7.63;;;19.80;99.90;;;;;;5086083;28;20059;-65
2022/07/13 04:12:47;;;;;;;8.73;8.05;;;19.80;99.90;;;;;;5084724;28;20052;-65
2022/07/13 04:15:14;;;;;;;8.40;7.57;;;19.80;99.90;;;;;;5085693;28;20047;-65
2022/07/13 04:17:41;;;;;;;7.72;7.07;;;19.90;99.90;;;;;;5085547;28;20291;-65
2022/07/13 04:20:07;;;;;;;7.72;7.07;;;19.90;99.90;;;;;;5084228;28;20052;-65
2022/07/13 04:22:33;;;;;;;7.90;7.13;;;19.90;99.90;;;;;;5085381;28;20644;-65
2022/07/13 04:24:59;;;;;;;8.07;7.20;;;20.10;99.90;;;;;;5085292;28;20044;-65
2022/07/13 04:27:25;;;;;;;9.50;6.47;;;19.80;99.90;;;;;;5084429;28;20075;-65
2022/07/13 04:29:50;;;;;;;7.78;7.07;;;19.90;99.90;;;;;;5083947;28;20043;-65
2022/07/13 04:32:16;;;;;;;6.85;6.25;;;19.90;99.90;;;;;;5085969;28;20495;-65
2022/07/13 04:34:42;;;;;;;6.95;6.32;;;19.90;99.90;;;;;;5088290;28;20231;-65
2022/07/13 04:37:07;;;;;;;7.55;6.85;;;19.90;99.90;;;;;;5088325;28;20044;-65
2022/07/13 04:39:33;;;;;;;7.25;6.63;;;19.90;99.90;;;;;;5088958;28;20051;-65
2022/07/13 04:41:59;;;;;;;8.63;7.63;;;19.90;99.90;;;;;;5087824;28;20089;-65
2022/07/13 04:44:26;;;;;;;8.57;7.65;;;19.90;99.90;;;;;;5088987;28;20046;-65
2022/07/13 04:46:52;;;;;;;9.27;7.30;;;19.90;99.90;;;;;;5086931;28;20052;-65
2022/07/13 04:49:19;;;;;;;9.02;8.23;;;19.90;99.90;;;;;;5088555;28;20043;-65
2022/07/13 04:51:47;;;;;;;9.15;8.25;;;19.90;99.90;;;;;;5089480;28;20101;-65
2022/07/13 04:54:15;;;;;;;8.18;6.95;;;20.00;99.90;;;;;;5088819;28;20100;-65
2022/07/13 04:56:41;;;;;;;8.98;8.07;;;20.00;99.90;;;;;;5087850;28;20482;-65
2022/07/13 04:59:07;;;;;;;7.70;7.00;;;20.00;99.90;;;;;;5088077;28;20135;-65
2022/07/13 05:01:32;;;;;;;7.97;7.22;;;20.00;99.90;;;;;;5088477;28;20147;-65
2022/07/13 05:03:58;;;;;;;8.60;7.75;;;20.00;99.90;;;;;;5087321;28;20082;-65
2022/07/13 05:06:24;;;;;;;8.35;7.30;;;20.00;99.90;;;;;;5088711;28;20391;-65
2022/07/13 05:08:50;;;;;;;8.63;7.82;;;20.00;99.90;;;;;;5086467;28;20087;-65
2022/07/13 05:11:15;;;;;;;7.63;7.03;;;20.00;99.90;;;;;;5087703;28;20055;-65
2022/07/13 05:13:41;;;;;;;8.65;7.70;;;20.00;99.90;;;;;;5088472;28;20524;-65
2022/07/13 05:16:07;;;;;;;8.50;7.68;;;20.10;99.90;;;;;;5087267;28;20314;-65
2022/07/13 05:18:32;;;;;;;9.05;7.85;;;20.00;99.90;;;;;;5088133;28;20048;-65
2022/07/13 05:20:58;;;;;;;9.18;8.30;;;20.00;99.90;;;;;;5088131;28;20044;-65
2022/07/13 05:23:23;;;;;;;9.45;7.78;;;20.00;99.90;;;;;;5087644;28;20480;-65
2022/07/13 05:25:49;;;;;;;8.77;8.07;;;20.00;99.90;;;;;;5088381;28;20082;-65
2022/07/13 05:28:15;;;;;;;9.32;8.02;;;20.00;99.90;;;;;;5088609;28;20047;-65
2022/07/13 05:30:40;;;;;;;9.10;8.20;;;20.00;99.90;;;;;;5087304;28;20101;-65
2022/07/13 05:33:06;;;;;;;8.73;7.93;;;20.00;99.90;;;;;;5086231;28;20048;-65
2022/07/13 05:35:31;;;;;;;9.95;8.95;;;20.00;99.90;;;;;;5086532;28;20375;-65
2022/07/13 05:37:57;;;;;;;7.75;7.00;;;20.00;99.90;;;;;;5085768;28;20135;-65
2022/07/13 05:40:23;;;;;;;9.55;8.65;;;20.00;99.90;;;;;;5088029;28;20044;-65
2022/07/13 05:42:49;;;;;;;9.35;8.43;;;20.00;99.90;;;;;;5088032;28;20036;-65
2022/07/13 05:45:15;;;;;;;9.90;8.43;;;20.00;99.90;;;;;;5085412;28;20145;-65
2022/07/13 05:47:45;;;;;;;8.52;7.72;;;20.10;99.90;;;;;;5087505;28;20127;-65
2022/07/13 05:50:13;;;;;;;8.90;8.13;;;20.10;99.90;;;;;;5087749;28;20072;-65
2022/07/13 05:52:39;;;;;;;8.40;7.53;;;20.10;99.90;;;;;;5087181;28;20040;-65
2022/07/13 05:55:05;;;;;;;8.90;7.88;;;20.20;99.90;;;;;;5087138;28;20040;-65
2022/07/13 05:57:31;;;;;;;12.57;7.82;;;20.10;99.90;;;;;;5087391;28;20044;-65
2022/07/13 05:59:56;;;;;;;9.35;8.38;;;20.00;99.90;;;;;;5086185;28;20051;-65
2022/07/13 06:02:22;;;;;;;8.75;7.93;;;20.10;99.90;;;;;;5087200;28;20055;-65
2022/07/13 06:04:48;;;;;;;9.63;8.80;;;20.20;99.90;;;;;;5086449;28;20196;-65
2022/07/13 06:07:14;;;;;;;13.23;8.82;;;20.20;99.90;;;;;;5085006;28;20044;-65
2022/07/13 06:09:39;;;;;;;8.70;7.80;;;20.20;99.90;;;;;;5087254;28;20459;-65
2022/07/13 06:12:05;;;;;;;9.57;8.00;;;20.30;99.90;;;;;;5086352;28;20797;-66
2022/07/13 06:14:31;;;;;;;7.90;7.18;;;20.30;99.90;;;;;;5085796;28;20047;-65
2022/07/13 06:16:56;;;;;;;10.85;7.45;;;20.40;99.90;;;;;;5086619;28;20590;-65
2022/07/13 06:19:22;;;;;;;11.40;5.95;;;20.30;99.90;;;;;;5084855;28;20547;-65
2022/07/13 06:21:47;;;;;;;8.93;6.28;;;20.40;99.90;;;;;;5087461;28;20398;-65
2022/07/13 06:24:13;;;;;;;7.05;5.85;;;20.50;99.90;;;;;;5086952;28;20075;-65
2022/07/13 06:26:39;;;;;;;9.13;5.68;;;20.50;99.90;;;;;;5086009;28;20350;-65
2022/07/13 06:29:05;;;;;;;6.47;5.65;;;20.50;99.90;;;;;;5086320;28;20043;-65
2022/07/13 06:31:30;;;;;;;10.98;6.28;;;20.50;99.90;;;;;;5086777;28;20044;-66
2022/07/13 06:33:56;;;;;;;12.27;6.82;;;20.50;99.90;;;;;;5085682;28;20444;-67
2022/07/13 06:36:22;;;;;;;8.20;6.05;;;20.50;99.90;;;;;;5086563;28;20067;-65
2022/07/13 06:38:49;;;;;;;16.85;7.13;;;20.60;99.90;;;;;;5085568;28;20545;-65
2022/07/13 06:41:15;;;;;;;11.52;6.40;;;20.60;99.90;;;;;;5086474;28;20051;-65
2022/07/13 06:43:41;;;;;;;8.45;6.93;;;20.70;99.90;;;;;;5085215;28;20078;-65
2022/07/13 06:46:08;;;;;;;12.48;7.47;;;20.70;99.90;;;;;;5084897;28;20072;-65
2022/07/13 06:48:35;;;;;;;11.40;7.97;;;20.80;99.90;;;;;;5085964;28;20056;-65
2022/07/13 06:51:01;;;;;;;7.88;7.07;;;20.80;99.90;;;;;;5084849;28;20047;-65
2022/07/13 06:53:26;;;;;;;11.10;7.68;;;20.90;99.90;;;;;;5084780;28;20070;-65
2022/07/13 06:55:52;;;;;;;12.93;8.13;;;20.90;99.90;;;;;;5085715;28;20131;-65
2022/07/13 06:58:18;;;;;;;12.85;8.88;;;21.00;99.90;;;;;;5087121;28;20060;-65
2022/07/13 07:00:43;;;;;;;12.75;9.43;;;21.00;99.90;;;;;;5084870;28;20051;-65
2022/07/13 07:03:09;;;;;;;14.02;8.98;;;21.00;99.90;;;;;;5085443;28;20275;-65
2022/07/13 07:05:34;;;;;;;9.45;8.50;;;21.10;99.90;;;;;;5086215;28;20448;-65
2022/07/13 07:08:02;;;;;;;13.43;9.57;;;21.20;99.90;;;;;;5085901;28;20063;-65
2022/07/13 07:10:28;;;;;;;14.02;10.57;;;21.10;99.90;;;;;;5085274;28;20044;-65
2022/07/13 07:12:53;;;;;;;12.13;9.80;;;21.20;99.90;;;;;;5085687;28;20036;-65
2022/07/13 07:15:19;;;;;;;12.45;10.27;;;21.20;99.90;;;;;;5086486;28;20118;-66
2022/07/13 07:17:46;;;;;;;14.93;11.48;;;21.30;99.90;;;;;;5086066;28;20150;-65
2022/07/13 07:20:12;;;;;;;16.27;11.43;;;21.30;99.90;;;;;;5085708;28;20362;-65
2022/07/13 07:22:39;;;;;;;16.55;10.75;;;21.40;99.90;;;;;;5085388;28;20055;-65
2022/07/13 07:25:05;;;;;;;13.52;12.05;;;21.40;99.90;;;;;;5085609;28;20035;-65
2022/07/13 07:27:31;;;;;;;13.90;12.25;;;21.50;99.90;;;;;;5085925;28;20387;-65
2022/07/13 07:29:57;;;;;;;20.75;12.57;;;21.60;99.90;;;;;;5084536;28;20127;-65
2022/07/13 07:32:22;;;;;;;14.50;10.75;;;21.60;99.90;;;;;;5086291;28;20444;-65
2022/07/13 07:34:49;;;;;;;15.30;11.40;;;21.70;99.90;;;;;;5086420;28;20097;-65
2022/07/13 07:37:15;;;;;;;14.32;10.52;;;21.70;99.90;;;;;;5085576;28;20537;-65
2022/07/13 07:39:40;;;;;;;11.82;10.60;;;21.80;99.90;;;;;;5085672;28;20040;-65
2022/07/13 07:42:06;;;;;;;14.65;11.27;;;21.80;99.90;;;;;;5084615;28;20048;-65
2022/07/13 07:44:32;;;;;;;13.05;10.68;;;21.90;99.90;;;;;;5084884;28;20131;-65
2022/07/13 07:46:58;;;;;;;10.90;9.60;;;22.00;99.90;;;;;;5085621;28;20048;-65
2022/07/13 07:49:24;;;;;;;13.75;10.77;;;22.10;99.90;;;;;;5086015;28;20063;-65
2022/07/13 07:51:50;;;;;;;15.50;11.00;;;22.10;99.90;;;;;;5084890;28;20040;-65
2022/07/13 07:54:15;;;;;;;17.70;10.43;;;22.10;99.90;;;;;;5086113;28;20036;-65
2022/07/13 07:56:41;;;;;;;14.13;10.10;;;22.20;99.90;;;;;;5085676;28;20498;-65
2022/07/13 07:59:07;;;;;;;13.85;11.35;;;22.20;99.90;;;;;;5065963;28;20092;-65
2022/07/13 08:01:32;;;;;;;10.57;8.70;;;22.30;99.90;;;;;;5084325;28;20074;-65
2022/07/13 08:03:58;;;;;;;10.95;9.57;;;22.40;99.90;;;;;;5085292;28;20409;-65
2022/07/13 08:06:23;;;;;;;12.23;8.48;;;22.40;99.90;;;;;;5084643;28;20040;-65
2022/07/13 08:08:50;;;;;;;9.15;7.95;;;22.40;99.90;;;;;;5087004;28;20054;-65
2022/07/13 08:11:19;;;;;;;11.43;8.23;;;22.50;99.90;;;;;;5089702;28;20073;-65
2022/07/13 08:13:46;;;;;;;10.55;8.00;;;22.60;99.90;;;;;;5089273;28;20039;-65
2022/07/13 08:16:12;;;;;;;9.02;7.22;;;22.60;99.90;;;;;;5089460;28;20051;-66
2022/07/13 08:18:38;;;;;;;12.23;9.10;;;22.70;99.90;;;;;;5089371;28;20043;-66
2022/07/13 08:21:04;;;;;;;13.02;9.52;;;22.80;99.90;;;;;;5088176;28;20112;-66
2022/07/13 08:26:14;;;;;;;6.43;5.82;;;22.90;99.90;;;;;;5088332;28;20076;-66
2022/07/13 08:28:39;;;;;;;6.80;6.10;;;22.90;99.90;;;;;;5089286;28;20678;-65
2022/07/13 08:31:05;;;;;;;8.00;6.55;;;22.90;99.90;;;;;;5088688;28;20329;-65
2022/07/13 08:39:00;;;;;;;7.53;4.97;;;23.10;99.90;;;;;;5088527;28;20567;-65
2022/07/13 08:41:25;;;;;;;4.72;4.28;;;23.20;99.90;;;;;;5088374;28;20075;-65
2022/07/13 08:43:51;;;;;;;7.50;5.57;;;23.30;99.90;;;;;;5088776;28;20048;-65
2022/07/13 08:46:20;;;;;;;7.50;5.90;;;23.30;99.90;;;;;;5088181;28;20048;-65
2022/07/13 08:48:49;;;;;;;5.75;4.75;;;23.40;99.90;;;;;;5088675;28;20044;-65
2022/07/13 08:51:19;;;;;;;3.47;3.15;;;23.40;99.90;;;;;;5089315;28;20044;-65
2022/07/13 08:53:45;;;;;;;3.45;3.08;;;23.50;99.90;;;;;;5089746;28;20044;-65
2022/07/13 08:56:11;;;;;;;3.15;2.80;;;23.50;99.90;;;;;;5088107;28;20040;-66
2022/07/13 08:58:37;;;;;;;3.88;2.90;;;23.50;99.90;;;;;;5088708;28;20117;-66
2022/07/13 09:01:05;;;;;;;10.95;5.97;;;23.70;99.90;;;;;;5087659;28;20483;-65
2022/07/13 09:03:34;;;;;;;3.80;3.50;;;23.70;99.90;;;;;;5087189;28;20485;-66
2022/07/13 09:05:59;;;;;;;5.00;3.00;;;23.70;99.90;;;;;;5069968;28;20363;-65
2022/07/13 09:08:25;;;;;;;3.75;2.10;;;23.80;99.90;;;;;;5087781;28;20044;-65
2022/07/13 09:11:01;;;;;;;5.10;2.45;;;23.80;99.90;;;;;;5088389;28;20038;-65
2022/07/13 09:13:44;;;;;;;3.83;2.55;;;23.90;99.90;;;;;;5088446;28;20384;-65
2022/07/13 09:16:16;;;;;;;2.25;2.05;;;23.90;99.90;;;;;;5087470;28;20093;-65
2022/07/13 09:18:47;;;;;;;3.85;2.38;;;24.00;99.90;;;;;;5088136;28;20123;-66
2022/07/13 09:21:13;;;;;;;4.15;1.85;;;24.00;99.90;;;;;;5087534;28;20525;-65
2022/07/13 09:23:39;;;;;;;3.95;1.70;;;24.10;99.90;;;;;;5087934;28;20048;-65
2022/07/13 09:26:05;;;;;;;4.75;1.90;;;24.10;99.90;;;;;;5086734;28;20072;-65
2022/07/13 09:28:51;;;;;;;4.13;2.00;;;24.20;99.90;;;;;;5089029;28;20091;-66
2022/07/13 09:31:18;;;;;;;2.17;1.63;;;24.20;99.90;;;;;;5089429;28;20040;-66
2022/07/13 09:33:45;;;;;;;7.85;2.40;;;24.20;99.90;;;;;;5089418;28;20101;-65
2022/07/13 09:36:23;;;;;;;2.83;1.90;;;24.30;99.90;;;;;;5088908;28;20032;-66
2022/07/13 09:38:53;;;;;;;4.28;1.85;;;24.30;99.90;;;;;;5088233;28;20119;-65
2022/07/13 09:41:24;;;;;;;2.75;1.77;;;24.40;99.90;;;;;;5088730;28;20075;-66
2022/07/13 09:46:57;;;;;;;2.30;2.00;;;25.30;99.90;;;;;;5087985;28;20052;-65
2022/07/13 09:49:35;;;;;;;3.03;1.75;;;24.50;99.90;;;;;;5087886;28;20210;-65
2022/07/13 09:52:02;;;;;;;3.20;2.03;;;24.50;99.90;;;;;;5085628;28;20537;-65
2022/07/13 09:54:29;;;;;;;3.00;2.10;;;24.50;99.90;;;;;;5087565;28;20467;-66
2022/07/13 09:57:01;;;;;;;3.60;2.08;;;24.50;99.90;;;;;;5087184;28;20047;-65
2022/07/13 09:59:28;;;;;;;2.90;2.20;;;24.50;99.90;;;;;;5085190;28;20508;-66
2022/07/13 10:01:54;;;;;;;4.53;2.00;;;24.50;99.90;;;;;;5087037;28;20056;-66
2022/07/13 10:04:21;;;;;;;1.55;1.42;;;24.50;99.90;;;;;;5086577;28;20044;-65
2022/07/13 10:06:47;;;;;;;3.70;1.98;;;24.50;99.90;;;;;;5088009;28;20043;-66
2022/07/13 10:09:14;;;;;;;2.65;1.50;;;24.50;99.90;;;;;;5087081;28;20047;-65
2022/07/13 10:11:39;;;;;;;2.65;1.45;;;24.60;99.90;;;;;;5086524;28;20769;-65
2022/07/13 10:14:06;;;;;;;2.13;1.15;;;24.50;99.90;;;;;;5085262;28;20101;-66
2022/07/13 10:16:32;;;;;;;3.80;1.63;;;24.60;99.90;;;;;;5086979;28;20044;-66
2022/07/13 10:19:03;;;;;;;4.30;1.92;;;24.60;99.90;;;;;;5086115;28;20040;-65
2022/07/13 10:21:57;;;;;;;1.23;1.00;;;24.70;99.90;;;;;;5087205;28;20048;-66
2022/07/13 10:24:23;;;;;;;2.15;1.35;;;24.70;99.90;;;;;;5086770;28;20052;-65
2022/07/13 10:26:50;;;;;;;1.65;1.35;;;24.60;99.90;;;;;;5086217;28;20047;-66
2022/07/13 10:29:15;;;;;;;2.85;1.20;;;24.60;99.90;;;;;;5085675;28;20119;-65
2022/07/13 10:31:42;;;;;;;3.28;1.40;;;24.70;99.90;;;;;;5086444;28;20119;-65
2022/07/13 10:34:12;;;;;;;2.13;1.10;;;24.70;99.90;;;;;;5085595;28;20059;-65
2022/07/13 10:36:57;;;;;;;3.08;1.30;;;24.70;99.90;;;;;;5085285;28;20120;-65
2022/07/13 10:39:25;;;;;;;1.83;1.25;;;24.80;99.90;;;;;;5085970;28;20088;-65
2022/07/13 10:41:57;;;;;;;1.40;1.23;;;24.80;99.90;;;;;;5086359;28;20058;-65
2022/07/13 10:44:37;;;;;;;1.77;1.15;;;24.80;99.90;;;;;;5086384;28;20048;-65
2022/07/13 10:47:04;;;;;;;3.55;1.35;;;24.90;99.90;;;;;;5085551;28;20048;-65
2022/07/13 10:49:30;;;;;;;2.80;1.30;;;24.90;99.90;;;;;;5086659;28;20043;-65
2022/07/13 10:51:57;;;;;;;1.48;1.10;;;25.00;99.90;;;;;;5086162;28;20040;-65
2022/07/13 10:54:23;;;;;;;1.20;1.10;;;25.00;99.90;;;;;;5085608;28;20047;-66
2022/07/13 10:57:12;;;;;;;2.22;1.33;;;25.10;99.90;;;;;;5085445;28;20048;-66
2022/07/13 10:59:48;;;;;;;0.90;0.90;;;25.10;99.90;;;;;;5085428;28;20139;-65
2022/07/13 11:02:43;;;;;;;1.35;1.10;;;25.10;99.90;;;;;;5085833;28;20044;-65
2022/07/13 11:05:09;;;;;;;1.73;1.15;;;25.10;99.90;;;;;;5076363;28;20470;-65
2022/07/13 11:07:49;;;;;;;2.97;1.73;;;25.10;99.90;;;;;;5085506;28;20043;-66
2022/07/13 11:10:18;;;;;;;2.35;1.30;;;25.10;99.90;;;;;;5086873;28;20040;-65
2022/07/13 11:13:04;;;;;;;6.40;1.80;;;25.10;99.90;;;;;;5086188;28;20063;-65
2022/07/13 11:15:52;;;;;;;4.35;1.35;;;25.10;99.90;;;;;;5085392;28;20040;-66
2022/07/13 11:18:34;;;;;;;2.40;1.40;;;25.10;99.90;;;;;;5086661;28;20225;-65
2022/07/13 11:21:12;;;;;;;1.52;1.15;;;25.10;99.90;;;;;;5085622;28;20080;-65
2022/07/13 11:26:39;;;;;;;4.82;1.70;;;25.10;99.90;;;;;;5085983;28;20506;-65
2022/07/13 11:29:28;;;;;;;1.85;1.30;;;25.20;99.90;;;;;;5083440;28;20101;-65
2022/07/13 11:32:02;;;;;;;2.30;1.20;;;25.20;99.90;;;;;;5085885;28;20062;-66
2022/07/13 11:34:28;;;;;;;3.00;1.48;;;25.20;99.90;;;;;;5086203;28;20426;-65
2022/07/13 11:36:55;;;;;;;4.45;2.03;;;25.20;99.90;;;;;;5085270;28;20489;-65
2022/07/13 11:39:26;;;;;;;2.15;1.98;;;25.10;99.90;;;;;;5086012;28;20101;-65
2022/07/13 11:41:53;;;;;;;4.85;2.30;;;25.00;99.90;;;;;;5085620;28;20040;-65
2022/07/13 11:44:25;;;;;;;2.97;2.10;;;24.80;99.90;;;;;;5089215;28;20430;-65
2022/07/13 11:46:51;;;;;;;2.00;1.80;;;24.70;99.90;;;;;;5088714;28;20067;-65
2022/07/13 11:49:17;;;;;;;3.28;2.13;;;24.70;99.90;;;;;;5090470;28;20150;-65
2022/07/13 11:51:44;;;;;;;2.95;1.80;;;24.50;99.90;;;;;;5089267;28;20147;-66
2022/07/13 11:54:12;;;;;;;2.80;2.10;;;24.50;99.90;;;;;;5088098;28;20558;-65
2022/07/13 11:56:53;;;;;;;5.05;1.98;;;24.70;99.90;;;;;;5089923;28;20055;-66
2022/07/13 11:59:44;;;;;;;1.85;1.55;;;24.80;99.90;;;;;;5090404;28;20044;-65
2022/07/13 12:02:11;;;;;;;3.15;1.73;;;24.90;99.90;;;;;;5089203;28;20425;-65
2022/07/13 12:04:48;;;;;;;6.68;1.83;;;24.90;99.90;;;;;;5089095;28;20055;-65
2022/07/13 12:07:16;;;;;;;8.52;2.40;;;25.10;99.90;;;;;;5089652;28;20042;-66
2022/07/13 12:09:54;;;;;;;3.88;1.30;;;25.10;99.90;;;;;;5089639;28;20517;-66
2022/07/13 12:12:23;;;;;;;2.03;1.23;;;25.10;99.90;;;;;;5088926;28;20048;-66
2022/07/13 12:14:51;;;;;;;2.92;1.63;;;24.90;99.90;;;;;;5089798;28;20055;-65
2022/07/13 12:17:16;;;;;;;4.50;1.70;;;24.90;99.90;;;;;;5089645;28;20086;-65
2022/07/13 12:19:42;;;;;;;3.60;1.88;;;24.90;99.90;;;;;;5088922;28;20084;-66
2022/07/13 12:22:08;;;;;;;4.90;2.00;;;24.90;99.90;;;;;;5089073;28;20085;-66
2022/07/13 12:24:35;;;;;;;5.25;1.88;;;24.80;99.90;;;;;;5089502;28;20036;-65
2022/07/13 12:27:02;;;;;;;5.60;1.83;;;24.70;99.90;;;;;;5086917;28;20071;-66
2022/07/13 12:29:32;;;;;;;3.13;1.98;;;24.80;99.90;;;;;;5089472;28;20051;-65
2022/07/13 12:32:02;;;;;;;4.10;1.92;;;24.90;99.90;;;;;;5088043;28;20044;-66
2022/07/13 12:34:28;;;;;;;6.75;2.30;;;24.90;99.90;;;;;;5089326;28;20044;-66
2022/07/13 12:36:54;;;;;;;4.18;1.92;;;24.90;99.90;;;;;;5087650;28;20394;-65
2022/07/13 12:39:36;;;;;;;3.20;1.75;;;25.00;99.90;;;;;;5088546;28;20075;-66
2022/07/13 12:42:02;;;;;;;3.75;1.98;;;25.10;99.90;;;;;;5089116;28;20076;-65
2022/07/13 12:44:31;;;;;;;6.55;2.10;;;25.80;99.90;;;;;;5088867;28;20513;-65
2022/07/13 12:46:59;;;;;;;3.45;1.60;;;25.10;99.90;;;;;;5086373;28;20048;-65
2022/07/13 12:49:36;;;;;;;3.75;2.08;;;25.10;99.90;;;;;;5088883;28;20052;-66
2022/07/13 12:52:07;;;;;;;3.30;1.58;;;25.10;99.90;;;;;;5088625;28;20058;-66
2022/07/13 12:54:45;;;;;;;3.13;1.75;;;25.00;99.90;;;;;;5088017;28;20132;-66
2022/07/13 12:57:19;;;;;;;3.58;1.90;;;25.00;99.90;;;;;;5087404;28;20048;-65
2022/07/13 13:00:11;;;;;;;3.33;1.60;;;25.10;99.90;;;;;;5089197;28;20548;-66
2022/07/13 13:02:37;;;;;;;2.63;1.25;;;25.10;99.90;;;;;;5087442;28;20127;-66